createdAt,value
2023-03-20T00:03:06.919Z,9.12
2023-03-20T00:06:52.356Z,9.05
2023-03-20T00:10:37.725Z,9.07
2023-03-20T00:14:22.487Z,9.11
2023-03-20T00:18:13.279Z,9.10
2023-03-20T00:21:58.982Z,9.08
2023-03-20T00:25:43.229Z,9.07
2023-03-20T00:29:27.621Z,9.07
2023-03-20T00:33:11.844Z,9.03
2023-03-20T00:36:55.000Z,9.01
2023-03-20T00:40:37.723Z,9.02
2023-03-20T00:44:23.339Z,9.03
2023-03-20T00:48:07.799Z,8.95
2023-03-20T00:51:52.323Z,8.87
2023-03-20T00:55:35.326Z,8.88
2023-03-20T00:59:20.183Z,8.88
2023-03-20T01:03:04.033Z,8.88
2023-03-20T01:06:47.315Z,8.87
2023-03-20T01:10:33.524Z,8.94
2023-03-20T01:14:17.956Z,8.83
2023-03-20T01:18:00.859Z,8.84
2023-03-20T01:21:44.035Z,8.84
2023-03-20T01:25:27.112Z,8.84
2023-03-20T01:29:19.023Z,8.86
2023-03-20T01:33:03.014Z,8.86
2023-03-20T01:36:50.370Z,8.87
2023-03-20T01:40:34.812Z,8.92
2023-03-20T01:44:23.212Z,8.88
2023-03-20T01:48:14.560Z,8.87
2023-03-20T01:51:58.273Z,8.85
2023-03-20T01:55:42.651Z,8.86
2023-03-20T01:59:28.503Z,8.86
2023-03-20T02:03:11.341Z,8.84
2023-03-20T02:06:54.104Z,8.83
2023-03-20T02:10:36.934Z,8.80
2023-03-20T02:14:19.825Z,8.77
2023-03-20T02:18:04.104Z,8.82
2023-03-20T02:22:26.390Z,8.78
2023-03-20T02:26:23.662Z,8.75
2023-03-20T02:30:51.352Z,8.80
2023-03-20T02:34:52.849Z,8.81
2023-03-20T02:39:01.460Z,8.81
2023-03-20T02:42:46.670Z,8.77
2023-03-20T02:46:35.409Z,8.74
2023-03-20T02:50:20.992Z,8.73
2023-03-20T02:54:09.433Z,8.71
2023-03-20T02:57:58.588Z,8.74
2023-03-20T03:01:44.007Z,8.74
2023-03-20T03:05:31.046Z,8.74
2023-03-20T03:09:18.631Z,8.74
2023-03-20T03:13:02.212Z,8.79
2023-03-20T03:16:46.053Z,8.76
2023-03-20T03:20:32.372Z,8.73
2023-03-20T03:24:40.265Z,8.76
2023-03-20T03:28:28.797Z,8.75
2023-03-20T03:32:24.467Z,8.74
2023-03-20T03:36:12.205Z,8.71
2023-03-20T03:40:03.266Z,8.66
2023-03-20T03:43:49.724Z,8.68
2023-03-20T03:47:34.677Z,8.64
2023-03-20T03:51:19.059Z,8.67
2023-03-20T03:55:04.975Z,8.66
2023-03-20T03:58:49.826Z,8.64
2023-03-20T04:02:32.537Z,8.62
2023-03-20T04:06:16.874Z,8.61
2023-03-20T04:09:59.639Z,8.60
2023-03-20T04:13:43.788Z,8.53
2023-03-20T04:17:26.449Z,8.48
2023-03-20T04:21:09.524Z,8.37
2023-03-20T04:24:52.658Z,8.33
2023-03-20T04:28:35.393Z,8.26
2023-03-20T04:32:19.505Z,8.26
2023-03-20T04:36:02.279Z,8.32
2023-03-20T04:39:45.012Z,8.36
2023-03-20T04:43:27.691Z,8.36
2023-03-20T04:47:10.365Z,8.29
2023-03-20T04:50:54.411Z,8.29
2023-03-20T04:54:37.117Z,8.20
2023-03-20T04:58:19.793Z,8.16
2023-03-20T05:02:02.421Z,8.12
2023-03-20T05:05:45.398Z,8.04
2023-03-20T05:09:29.505Z,8.00
2023-03-20T05:13:12.443Z,7.96
2023-03-20T05:16:55.539Z,7.94
2023-03-20T05:20:41.010Z,7.89
2023-03-20T05:24:23.765Z,7.88
2023-03-20T05:28:07.904Z,7.86
2023-03-20T05:31:50.671Z,7.91
2023-03-20T05:35:33.586Z,7.89
2023-03-20T05:39:16.568Z,7.94
2023-03-20T05:42:59.202Z,7.97
2023-03-20T05:46:43.277Z,7.94
2023-03-20T05:50:25.929Z,7.92
2023-03-20T05:54:08.604Z,7.87
2023-03-20T05:57:51.261Z,7.85
2023-03-20T06:01:33.960Z,7.82
2023-03-20T06:05:18.157Z,7.83
2023-03-20T06:09:00.876Z,7.82
2023-03-20T06:12:43.630Z,7.84
2023-03-20T06:16:27.328Z,7.86
2023-03-20T06:20:11.384Z,7.88
2023-03-20T06:23:56.676Z,7.90
2023-03-20T06:27:39.445Z,7.96
2023-03-20T06:31:22.248Z,7.98
2023-03-20T06:35:06.056Z,7.93
2023-03-20T06:38:48.738Z,7.88
2023-03-20T06:42:32.853Z,7.86
2023-03-20T06:46:15.668Z,7.87
2023-03-20T06:49:58.314Z,7.95
2023-03-20T06:53:41.649Z,7.98
2023-03-20T06:57:24.380Z,8.01
2023-03-20T07:01:12.048Z,8.04
2023-03-20T07:04:54.794Z,8.11
2023-03-20T07:08:37.542Z,8.21
2023-03-20T07:12:20.820Z,8.32
2023-03-20T07:16:05.232Z,8.36
2023-03-20T07:19:49.476Z,8.38
2023-03-20T07:23:34.337Z,8.39
2023-03-20T07:27:17.890Z,8.34
2023-03-20T07:31:00.835Z,8.38
2023-03-20T07:34:43.715Z,8.35
2023-03-20T07:38:27.804Z,8.35
2023-03-20T07:42:10.508Z,8.38
2023-03-20T07:45:53.187Z,8.43
2023-03-20T07:49:36.342Z,8.47
2023-03-20T07:53:19.400Z,8.52
2023-03-20T07:57:05.403Z,8.57
2023-03-20T08:00:48.124Z,8.56
2023-03-20T08:04:30.796Z,8.64
2023-03-20T08:08:13.778Z,8.65
2023-03-20T08:11:56.630Z,8.74
2023-03-20T08:15:40.856Z,8.84
2023-03-20T08:19:24.209Z,8.94
2023-03-20T08:23:08.008Z,9.01
2023-03-20T08:26:50.687Z,9.09
2023-03-20T08:30:33.408Z,9.08
2023-03-20T08:34:17.512Z,9.06
2023-03-20T08:38:00.350Z,9.18
2023-03-20T08:41:45.850Z,9.25
2023-03-20T08:45:30.744Z,9.19
2023-03-20T08:49:13.593Z,9.30
2023-03-20T08:52:57.625Z,9.97
2023-03-20T08:56:40.428Z,11.11
2023-03-20T09:00:24.205Z,10.82
2023-03-20T09:04:06.923Z,10.50
2023-03-20T09:07:49.620Z,10.38
2023-03-20T09:11:34.291Z,10.38
2023-03-20T09:15:17.092Z,10.30
2023-03-20T09:18:59.887Z,10.33
2023-03-20T09:22:43.822Z,10.35
2023-03-20T09:26:29.129Z,10.34
2023-03-20T09:30:14.828Z,10.38
2023-03-20T09:33:57.446Z,10.44
2023-03-20T09:37:40.193Z,10.50
2023-03-20T09:41:26.130Z,10.58
2023-03-20T09:45:15.672Z,10.65
2023-03-20T09:49:04.127Z,10.58
2023-03-20T09:52:53.173Z,10.51
2023-03-20T09:56:36.123Z,10.61
2023-03-20T10:00:22.331Z,10.63
2023-03-20T10:04:09.252Z,10.65
2023-03-20T10:07:53.563Z,10.73
2023-03-20T10:11:51.804Z,10.81
2023-03-20T10:15:44.762Z,10.90
2023-03-20T10:19:30.064Z,11.00
2023-03-20T10:23:18.054Z,10.98
2023-03-20T10:27:07.824Z,11.11
2023-03-20T10:30:58.559Z,11.20
2023-03-20T10:34:51.383Z,11.42
2023-03-20T10:38:37.950Z,11.37
2023-03-20T10:42:22.848Z,11.28
2023-03-20T10:46:11.720Z,11.27
2023-03-20T10:49:56.888Z,11.27
2023-03-20T10:53:46.511Z,11.46
2023-03-20T10:57:32.008Z,11.49
2023-03-20T11:01:16.236Z,11.50
2023-03-20T11:05:01.565Z,11.37
2023-03-20T11:08:48.830Z,11.37
2023-03-20T11:12:34.442Z,11.56
2023-03-20T11:16:24.227Z,11.70
2023-03-20T11:20:08.346Z,11.71
2023-03-20T11:24:00.833Z,11.79
2023-03-20T11:27:43.773Z,11.69
2023-03-20T11:31:32.449Z,11.56
2023-03-20T11:35:24.941Z,11.44
2023-03-20T11:39:11.724Z,11.44
2023-03-20T11:42:55.671Z,11.51
2023-03-20T11:46:39.723Z,11.57
2023-03-20T11:50:32.800Z,11.59
2023-03-20T11:54:17.627Z,11.54
2023-03-20T11:58:01.357Z,11.59
2023-03-20T12:01:47.251Z,11.78
2023-03-20T12:05:32.880Z,12.04
2023-03-20T12:09:26.965Z,12.09
2023-03-20T12:13:14.608Z,11.93
2023-03-20T12:17:07.441Z,11.86
2023-03-20T12:20:58.576Z,11.87
2023-03-20T12:24:45.258Z,11.72
2023-03-20T12:28:33.465Z,11.63
2023-03-20T12:32:21.720Z,11.64
2023-03-20T12:36:06.269Z,11.58
2023-03-20T12:39:51.015Z,11.44
2023-03-20T12:43:41.341Z,11.33
2023-03-20T12:47:42.150Z,11.27
2023-03-20T12:51:43.957Z,11.14
2023-03-20T12:55:34.955Z,11.16
2023-03-20T12:59:28.779Z,11.09
2023-03-20T13:03:46.850Z,11.02
2023-03-20T13:07:42.664Z,10.97
2023-03-20T13:11:30.764Z,10.99
2023-03-20T13:15:23.311Z,10.97
2023-03-20T13:19:12.741Z,11.05
2023-03-20T13:23:01.006Z,11.02
2023-03-20T13:26:49.157Z,11.16
2023-03-20T13:30:35.954Z,11.44
2023-03-20T13:34:33.667Z,11.74
2023-03-20T13:38:19.983Z,11.96
2023-03-20T13:42:03.882Z,12.39
2023-03-20T13:45:47.544Z,12.66
2023-03-20T13:49:36.320Z,12.87
2023-03-20T13:53:28.412Z,13.19
2023-03-20T13:57:17.774Z,13.44
2023-03-20T14:01:03.463Z,13.46
2023-03-20T14:04:48.334Z,13.41
2023-03-20T14:08:35.482Z,13.67
2023-03-20T14:12:19.958Z,13.65
2023-03-20T14:16:04.302Z,13.64
2023-03-20T14:19:49.010Z,13.52
2023-03-20T14:23:36.880Z,13.38
2023-03-20T14:27:36.767Z,13.36
2023-03-20T14:31:28.014Z,13.40
2023-03-20T14:35:24.964Z,13.65
2023-03-20T14:39:14.874Z,13.73
2023-03-20T14:43:00.445Z,13.76
2023-03-20T14:46:49.449Z,13.85
2023-03-20T14:50:36.413Z,13.78
2023-03-20T14:54:28.155Z,13.52
2023-03-20T14:58:34.907Z,13.24
2023-03-20T15:02:26.819Z,13.12
2023-03-20T15:06:11.704Z,13.08
2023-03-20T15:09:56.596Z,13.07
2023-03-20T15:13:44.056Z,12.94
2023-03-20T15:17:28.637Z,12.88
2023-03-20T15:21:17.222Z,12.67
2023-03-20T15:24:59.876Z,12.62
2023-03-20T15:28:44.339Z,12.56
2023-03-20T15:32:27.202Z,12.46
2023-03-20T15:36:11.600Z,12.33
2023-03-20T15:39:56.882Z,12.23
2023-03-20T15:43:42.487Z,12.14
2023-03-20T15:47:26.372Z,12.10
2023-03-20T15:51:11.380Z,12.01
2023-03-20T15:54:55.633Z,12.17
2023-03-20T15:58:39.241Z,12.24
2023-03-20T16:02:21.961Z,12.24
2023-03-20T16:06:06.327Z,12.10
2023-03-20T16:09:50.861Z,11.96
2023-03-20T16:13:39.013Z,11.88
2023-03-20T16:17:23.841Z,11.83
2023-03-20T16:21:08.404Z,11.79
2023-03-20T16:24:52.898Z,11.88
2023-03-20T16:28:38.652Z,11.82
2023-03-20T16:32:27.012Z,11.78
2023-03-20T16:36:18.780Z,11.85
2023-03-20T16:40:20.053Z,11.83
2023-03-20T16:44:09.228Z,11.81
2023-03-20T16:47:52.163Z,11.72
2023-03-20T16:51:34.911Z,11.67
2023-03-20T16:55:22.886Z,11.61
2023-03-20T16:59:09.508Z,11.56
2023-03-20T17:02:53.850Z,11.46
2023-03-20T17:06:39.218Z,11.17
2023-03-20T17:10:26.997Z,11.11
2023-03-20T17:14:11.245Z,11.06
2023-03-20T17:17:54.032Z,11.07
2023-03-20T17:21:36.779Z,11.01
2023-03-20T17:25:20.167Z,11.00
2023-03-20T17:29:02.951Z,10.93
2023-03-20T17:32:47.202Z,10.89
2023-03-20T17:36:32.129Z,10.83
2023-03-20T17:40:19.180Z,10.74
2023-03-20T17:44:01.967Z,10.67
2023-03-20T17:47:45.413Z,10.58
2023-03-20T17:51:29.688Z,10.47
2023-03-20T17:55:12.513Z,10.41
2023-03-20T17:58:55.231Z,10.34
2023-03-20T18:02:38.011Z,10.26
2023-03-20T18:06:24.550Z,10.19
2023-03-20T18:10:17.327Z,10.09
2023-03-20T18:14:01.869Z,10.02
2023-03-20T18:17:44.541Z,9.91
2023-03-20T18:21:27.227Z,9.88
2023-03-20T18:25:11.294Z,9.86
2023-03-20T18:28:55.568Z,9.83
2023-03-20T18:32:38.306Z,9.82
2023-03-20T18:36:22.601Z,9.84
2023-03-20T18:40:08.844Z,9.84
2023-03-20T18:43:55.554Z,9.78
2023-03-20T18:47:38.294Z,9.76
2023-03-20T18:51:21.680Z,9.75
2023-03-20T18:55:04.649Z,9.75
2023-03-20T18:58:48.569Z,9.79
2023-03-20T19:02:32.876Z,9.78
2023-03-20T19:06:17.695Z,9.80
2023-03-20T19:10:00.423Z,9.77
2023-03-20T19:13:45.461Z,9.76
2023-03-20T19:17:28.124Z,9.75
2023-03-20T19:21:12.132Z,9.62
2023-03-20T19:24:54.787Z,9.49
2023-03-20T19:28:41.163Z,9.42
2023-03-20T19:32:24.255Z,9.39
2023-03-20T19:36:07.791Z,9.42
2023-03-20T19:39:51.993Z,9.47
2023-03-20T19:43:42.585Z,9.51
2023-03-20T19:47:34.429Z,9.48
2023-03-20T19:51:18.513Z,9.46
2023-03-20T19:55:03.795Z,9.44
2023-03-20T19:58:46.707Z,9.48
2023-03-20T20:02:29.633Z,9.49
2023-03-20T20:06:12.457Z,9.45
2023-03-20T20:09:55.308Z,9.39
2023-03-20T20:13:53.454Z,9.30
2023-03-20T20:17:42.450Z,9.24
2023-03-20T20:25:28.054Z,9.34
2023-03-20T20:29:12.069Z,9.35
2023-03-20T20:33:02.846Z,9.35
2023-03-20T20:40:49.921Z,9.32
2023-03-20T20:44:34.034Z,9.31
2023-03-20T20:48:17.388Z,9.32
2023-03-20T20:52:00.110Z,9.26
2023-03-20T20:55:42.768Z,9.25
2023-03-20T20:59:25.618Z,9.27
2023-03-20T21:03:09.713Z,9.26
2023-03-20T21:07:10.705Z,9.23
2023-03-20T21:10:54.013Z,9.19
2023-03-20T21:14:37.151Z,9.19
2023-03-20T21:18:21.175Z,9.13
2023-03-20T21:22:07.384Z,9.10
2023-03-20T21:25:50.298Z,9.04
2023-03-20T21:29:33.118Z,8.97
2023-03-20T21:33:16.029Z,8.87
2023-03-20T21:37:56.114Z,8.80
2023-03-20T21:41:10.119Z,8.66
2023-03-20T21:45:54.298Z,8.42
2023-03-20T21:49:46.554Z,8.38
2023-03-20T21:53:45.981Z,8.71
2023-03-20T21:57:42.767Z,8.68
2023-03-20T22:01:53.835Z,8.76
2023-03-20T22:05:48.604Z,8.76
2023-03-20T22:14:12.645Z,8.73
2023-03-20T22:22:12.060Z,8.62
2023-03-20T22:26:00.718Z,8.57
2023-03-20T22:30:07.134Z,8.54
2023-03-20T22:45:52.064Z,8.43
2023-03-20T22:49:42.497Z,8.38
2023-03-20T22:53:25.381Z,8.34
2023-03-20T22:57:09.449Z,8.36
2023-03-20T23:00:54.922Z,8.32
2023-03-20T23:04:37.704Z,8.32
2023-03-20T23:08:20.955Z,8.33
2023-03-20T23:12:03.692Z,8.33
2023-03-20T23:15:50.597Z,8.33
2023-03-20T23:19:44.801Z,8.35
2023-03-20T23:23:29.974Z,8.34
2023-03-20T23:27:12.709Z,8.37
2023-03-20T23:31:09.395Z,8.39
2023-03-20T23:34:52.636Z,8.37
2023-03-20T23:38:35.863Z,8.39
2023-03-20T23:42:29.949Z,8.37
2023-03-20T23:46:15.078Z,8.38
2023-03-20T23:49:57.793Z,8.35
2023-03-20T23:53:40.653Z,8.37
2023-03-20T23:57:23.300Z,8.38
